Time;durP1;ratioP1;P1;durP2;ratioP2;P2;SDS_P1;SDS_P2;PMS_P1;PMS_P2;Temp;Humidity;BMP_temperature;BMP_pressure;BME280_temperature;BME280_humidity;BME280_pressure;Samples;Min_cycle;Max_cycle;Signal;HPM_P1;HPM_P2
2023/12/28 00:02:07;;;;;;;46.65;30.27;;;6.50;99.90;;;;;;4936165;29;20035;-52
2023/12/28 00:04:34;;;;;;;48.17;29.35;;;6.30;99.90;;;;;;4902108;29;20040;-52
2023/12/28 00:07:00;;;;;;;48.30;31.60;;;;;;;;;;4935927;29;20115;-52
2023/12/28 00:09:26;;;;;;;38.55;28.23;;;;;;;;;;4935637;29;20083;-52
2023/12/28 00:11:53;;;;;;;45.30;30.60;;;;;;;;;;4935485;29;20028;-52
2023/12/28 00:14:19;;;;;;;40.25;26.52;;;;;;;;;;4935736;29;20038;-52
2023/12/28 00:16:45;;;;;;;56.63;37.47;;;;;;;;;;4935601;29;20030;-52
2023/12/28 00:19:11;;;;;;;116.43;66.78;;;;;;;;;;4935420;29;20031;-52
2023/12/28 00:21:37;;;;;;;86.22;52.38;;;;;;;;;;4935610;29;20091;-52
2023/12/28 00:24:04;;;;;;;63.92;37.45;;;;;;;;;;4935493;29;20541;-52
2023/12/28 00:26:29;;;;;;;143.52;88.97;;;6.90;99.90;;;;;;4935538;29;20056;-52
2023/12/28 00:28:55;;;;;;;157.93;100.97;;;7.00;99.90;;;;;;4935397;29;20043;-53
2023/12/28 00:31:21;;;;;;;102.78;71.20;;;7.00;99.90;;;;;;4901722;29;20040;-53
2023/12/28 00:33:46;;;;;;;99.18;63.80;;;6.90;99.90;;;;;;4935538;29;20042;-53
2023/12/28 00:36:12;;;;;;;95.55;62.03;;;7.00;99.90;;;;;;4935265;29;20031;-52
2023/12/28 00:38:38;;;;;;;90.90;57.33;;;7.00;99.90;;;;;;4935309;29;20030;-52
2023/12/28 00:41:04;;;;;;;95.72;61.22;;;7.00;99.90;;;;;;4935171;29;20037;-52
2023/12/28 00:43:29;;;;;;;75.00;47.17;;;6.80;99.90;;;;;;4935340;29;20060;-52
2023/12/28 00:45:55;;;;;;;79.13;45.15;;;6.80;99.90;;;;;;4902962;29;20400;-52
2023/12/28 00:48:21;;;;;;;64.10;39.90;;;6.90;99.90;;;;;;4954194;29;20035;-52
2023/12/28 00:50:46;;;;;;;70.63;42.05;;;7.00;99.90;;;;;;4954025;29;20043;-53
2023/12/28 00:53:12;;;;;;;50.63;31.92;;;7.10;99.90;;;;;;4954334;29;20047;-52
2023/12/28 00:55:38;;;;;;;48.00;32.35;;;7.10;99.90;;;;;;4953535;28;20020;-52
2023/12/28 00:58:04;;;;;;;45.42;30.25;;;7.20;99.90;;;;;;4904635;29;20492;-53
2023/12/28 01:00:29;;;;;;;44.03;28.42;;;7.20;99.90;;;;;;4904483;29;20070;-53
2023/12/28 01:02:55;;;;;;;44.60;28.58;;;7.20;99.90;;;;;;4953952;29;20024;-52
2023/12/28 01:05:21;;;;;;;43.25;29.23;;;7.20;99.90;;;;;;4953891;29;20019;-53
2023/12/28 01:07:47;;;;;;;45.03;29.75;;;7.20;99.90;;;;;;4954279;29;20134;-52
2023/12/28 01:10:14;;;;;;;44.58;29.25;;;7.30;99.90;;;;;;4953365;29;20491;-53
2023/12/28 01:12:39;;;;;;;45.83;30.27;;;7.10;99.90;;;;;;4953669;29;20050;-52
2023/12/28 01:15:07;;;;;;;44.85;30.73;;;7.10;99.90;;;;;;4953775;29;20035;-53
2023/12/28 01:17:33;;;;;;;67.90;39.85;;;7.00;99.90;;;;;;4953964;29;20039;-53
2023/12/28 01:19:59;;;;;;;59.17;36.25;;;6.90;99.90;;;;;;4953850;29;20030;-53
2023/12/28 01:22:24;;;;;;;51.72;33.47;;;7.00;99.90;;;;;;4953741;29;20035;-53
2023/12/28 01:24:50;;;;;;;51.45;33.90;;;7.10;99.90;;;;;;4953780;29;20032;-53
2023/12/28 01:27:16;;;;;;;49.72;33.35;;;7.00;99.90;;;;;;4953590;29;20051;-53
2023/12/28 01:29:42;;;;;;;66.47;41.55;;;6.90;99.90;;;;;;4953751;29;20043;-53
2023/12/28 01:32:08;;;;;;;54.97;36.17;;;6.50;99.90;;;;;;4953945;29;20484;-53
2023/12/28 01:34:33;;;;;;;59.60;41.83;;;6.50;99.90;;;;;;4904210;29;20043;-53
2023/12/28 01:36:59;;;;;;;55.88;35.47;;;6.50;99.90;;;;;;4903860;29;20050;-52
2023/12/28 01:39:25;;;;;;;50.10;32.05;;;6.60;99.90;;;;;;4953469;29;20046;-53
2023/12/28 01:41:51;;;;;;;41.58;26.90;;;6.70;99.90;;;;;;4953944;29;20125;-53
2023/12/28 01:44:16;;;;;;;36.10;24.17;;;6.50;99.90;;;;;;4953601;29;20391;-52
2023/12/28 01:46:42;;;;;;;33.85;23.42;;;6.40;99.90;;;;;;4903956;29;20043;-53
2023/12/28 01:49:08;;;;;;;40.72;25.73;;;6.20;99.90;;;;;;4953820;29;20094;-53
2023/12/28 01:51:35;;;;;;;37.65;25.70;;;6.30;99.90;;;;;;4951243;29;20044;-54
2023/12/28 01:54:01;;;;;;;37.78;24.85;;;6.50;99.90;;;;;;4953440;29;20043;-53
2023/12/28 01:56:27;;;;;;;32.70;24.27;;;6.30;99.90;;;;;;4951332;29;20039;-52
2023/12/28 01:58:53;;;;;;;31.92;22.85;;;6.00;99.90;;;;;;4953344;29;20071;-53
2023/12/28 02:01:19;;;;;;;30.33;21.35;;;;;;;;;;4953529;29;20114;-53
2023/12/28 02:03:46;;;;;;;28.52;20.63;;;;;;;;;;4951235;29;20502;-53
2023/12/28 02:06:13;;;;;;;34.60;23.33;;;;;;;;;;4953750;28;20122;-52
2023/12/28 02:08:39;;;;;;;35.63;25.02;;;;;;;;;;4906992;29;20051;-53
2023/12/28 02:11:05;;;;;;;33.97;26.42;;;;;;;;;;4957098;29;20106;-53
2023/12/28 02:13:31;;;;;;;37.38;26.48;;;;;;;;;;4957332;29;20468;-53
2023/12/28 02:16:20;;;;;;;36.35;24.27;;;6.40;99.90;;;;;;4957147;29;20133;-53
2023/12/28 02:18:50;;;;;;;34.45;23.73;;;6.40;99.90;;;;;;4956785;29;20738;-53
2023/12/28 02:21:16;;;;;;;32.65;23.23;;;6.40;99.90;;;;;;4954169;29;20043;-52
2023/12/28 02:23:49;;;;;;;38.00;26.35;;;6.50;99.90;;;;;;4957047;29;20118;-52
2023/12/28 02:26:18;;;;;;;33.15;24.73;;;6.50;99.90;;;;;;4955929;29;20031;-53
2023/12/28 02:28:47;;;;;;;39.67;26.65;;;6.60;99.90;;;;;;4956252;29;20566;-53
2023/12/28 02:31:34;;;;;;;38.10;26.35;;;6.50;99.90;;;;;;4956996;29;20086;-53
2023/12/28 02:34:19;;;;;;;36.38;25.27;;;6.50;99.90;;;;;;4956576;29;20122;-53
2023/12/28 02:36:47;;;;;;;36.08;24.88;;;6.50;99.90;;;;;;4956538;29;20139;-52
2023/12/28 02:39:16;;;;;;;40.67;26.88;;;6.40;99.90;;;;;;4956794;29;20039;-52
2023/12/28 02:41:45;;;;;;;43.65;28.48;;;6.40;99.90;;;;;;4956445;29;20028;-53
2023/12/28 02:44:12;;;;;;;45.10;30.13;;;6.40;99.90;;;;;;4956461;29;20069;-53
2023/12/28 02:46:38;;;;;;;46.20;30.80;;;6.40;99.90;;;;;;4956433;29;20031;-52
2023/12/28 02:49:04;;;;;;;49.78;31.73;;;6.50;99.90;;;;;;4956668;29;20042;-52
2023/12/28 02:51:29;;;;;;;45.85;30.80;;;6.50;99.90;;;;;;4956352;29;20098;-52
2023/12/28 02:53:55;;;;;;;47.45;32.05;;;6.50;99.90;;;;;;4956122;29;20042;-53
2023/12/28 02:56:21;;;;;;;46.35;30.17;;;6.50;99.90;;;;;;4938241;29;20043;-52
2023/12/28 02:58:46;;;;;;;42.60;29.63;;;6.60;99.90;;;;;;4937997;29;20046;-52
2023/12/28 03:01:12;;;;;;;47.05;29.30;;;6.70;99.90;;;;;;4955821;29;20035;-53
2023/12/28 03:03:38;;;;;;;40.85;28.02;;;6.70;99.90;;;;;;4956627;29;20031;-52
2023/12/28 03:06:04;;;;;;;38.25;25.90;;;6.50;99.90;;;;;;4956251;29;20475;-52
2023/12/28 03:08:29;;;;;;;37.47;25.30;;;6.60;99.90;;;;;;4956114;29;20386;-52
2023/12/28 03:10:55;;;;;;;44.25;29.52;;;6.60;99.90;;;;;;4938670;29;20038;-53
2023/12/28 03:13:21;;;;;;;64.13;34.97;;;6.70;99.90;;;;;;4937668;29;20062;-52
2023/12/28 03:15:47;;;;;;;39.88;26.85;;;6.70;99.90;;;;;;4956068;29;20553;-52
2023/12/28 03:18:12;;;;;;;40.55;28.17;;;6.80;99.90;;;;;;4955598;28;20479;-52
2023/12/28 03:20:38;;;;;;;37.30;27.15;;;6.80;99.90;;;;;;4955838;29;20035;-53
2023/12/28 03:23:04;;;;;;;35.10;26.50;;;6.70;99.90;;;;;;4937731;29;20110;-53
2023/12/28 03:25:30;;;;;;;38.75;26.17;;;6.70;99.90;;;;;;4955629;29;20561;-52
2023/12/28 03:27:55;;;;;;;37.38;26.23;;;6.70;99.90;;;;;;4955274;29;20079;-53
2023/12/28 03:30:21;;;;;;;35.33;25.63;;;6.70;99.90;;;;;;4955842;29;20043;-52
2023/12/28 03:32:47;;;;;;;33.42;24.60;;;6.70;99.90;;;;;;4955567;29;20039;-52
2023/12/28 03:35:13;;;;;;;33.55;24.77;;;6.70;99.90;;;;;;4955429;29;20158;-53
2023/12/28 03:37:38;;;;;;;37.03;24.67;;;6.70;99.90;;;;;;4955646;29;20046;-52
2023/12/28 03:40:05;;;;;;;30.88;21.63;;;6.70;99.90;;;;;;4955372;29;20033;-53
2023/12/28 03:42:31;;;;;;;24.85;19.70;;;6.80;99.90;;;;;;4955493;29;20541;-52
2023/12/28 03:44:56;;;;;;;27.90;20.52;;;6.70;99.90;;;;;;4955593;29;20028;-53
2023/12/28 03:47:24;;;;;;;26.23;19.80;;;6.70;99.90;;;;;;4937280;29;20509;-52
2023/12/28 03:49:49;;;;;;;24.98;19.45;;;6.70;99.90;;;;;;4955115;29;20043;-53
2023/12/28 03:52:15;;;;;;;24.63;18.48;;;6.90;99.90;;;;;;4955099;29;20039;-52
2023/12/28 03:54:41;;;;;;;29.40;19.85;;;6.80;99.90;;;;;;4955294;29;20069;-52
2023/12/28 03:57:06;;;;;;;29.52;20.25;;;6.80;99.90;;;;;;4955622;29;20035;-53
2023/12/28 03:59:32;;;;;;;28.73;21.42;;;6.70;99.90;;;;;;4955273;29;20054;-52
2023/12/28 04:01:58;;;;;;;33.65;21.58;;;6.80;99.90;;;;;;4955042;29;20093;-52
2023/12/28 04:04:24;;;;;;;29.48;21.80;;;6.90;99.90;;;;;;4955212;29;20042;-53
2023/12/28 04:06:49;;;;;;;29.73;21.80;;;6.80;99.90;;;;;;4954983;29;20475;-53
2023/12/28 04:09:17;;;;;;;31.70;23.40;;;6.80;99.90;;;;;;4954882;29;20059;-53
2023/12/28 04:11:43;;;;;;;32.78;25.08;;;6.70;99.90;;;;;;4954567;29;20113;-53
2023/12/28 04:14:09;;;;;;;35.90;24.80;;;6.70;99.90;;;;;;4936691;29;20463;-53
2023/12/28 04:16:34;;;;;;;32.60;23.58;;;6.80;99.90;;;;;;4954909;29;20035;-52
2023/12/28 04:19:00;;;;;;;37.40;26.67;;;6.70;99.90;;;;;;4954758;29;20387;-52
2023/12/28 04:21:26;;;;;;;34.35;27.42;;;6.80;99.90;;;;;;4954893;29;20062;-53
2023/12/28 04:23:51;;;;;;;40.38;28.23;;;6.70;99.90;;;;;;4954767;29;20379;-52
2023/12/28 04:26:20;;;;;;;45.53;30.00;;;6.70;99.90;;;;;;4954499;29;20543;-53
2023/12/28 04:28:46;;;;;;;45.35;30.25;;;6.70;99.90;;;;;;4955996;29;20040;-53
2023/12/28 04:31:12;;;;;;;42.42;29.90;;;6.80;99.90;;;;;;4934054;29;20042;-53
2023/12/28 04:33:37;;;;;;;42.53;28.88;;;6.70;99.90;;;;;;4945544;29;20043;-54
2023/12/28 04:36:06;;;;;;;44.38;28.73;;;6.70;99.90;;;;;;4935456;29;20467;-52
2023/12/28 04:38:32;;;;;;;42.60;31.45;;;6.50;99.90;;;;;;4902460;29;20082;-52
2023/12/28 04:40:59;;;;;;;39.33;27.13;;;6.40;99.90;;;;;;4935234;29;20035;-52
2023/12/28 04:43:25;;;;;;;41.33;27.35;;;6.20;99.90;;;;;;4935167;29;20494;-52
2023/12/28 04:45:51;;;;;;;41.85;29.40;;;4.80;99.90;;;;;;4935249;29;20070;-53
2023/12/28 04:48:20;;;;;;;43.38;27.65;;;4.90;99.90;;;;;;4935315;29;20110;-53
2023/12/28 04:50:48;;;;;;;35.47;25.77;;;4.70;99.90;;;;;;4935174;29;20035;-53
2023/12/28 04:53:14;;;;;;;49.00;37.28;;;4.40;99.90;;;;;;4934932;29;20043;-53
2023/12/28 04:55:39;;;;;;;37.53;25.92;;;4.70;99.90;;;;;;4935301;29;20039;-52
2023/12/28 04:58:05;;;;;;;38.88;26.42;;;5.10;99.90;;;;;;4934994;29;20035;-52
2023/12/28 05:00:31;;;;;;;43.53;27.60;;;5.40;99.90;;;;;;4934894;29;20549;-52
2023/12/28 05:02:56;;;;;;;37.90;25.55;;;5.60;99.90;;;;;;4935086;29;20038;-53
2023/12/28 05:05:22;;;;;;;43.20;28.83;;;5.70;99.90;;;;;;4935061;29;20505;-52
2023/12/28 05:07:48;;;;;;;43.55;30.10;;;5.60;99.90;;;;;;4934847;29;20047;-52
2023/12/28 05:10:14;;;;;;;43.85;34.03;;;5.80;99.90;;;;;;4935162;29;20035;-52
2023/12/28 05:12:40;;;;;;;40.83;28.15;;;5.60;99.90;;;;;;4935117;29;20471;-52
2023/12/28 05:15:06;;;;;;;37.72;23.35;;;5.10;99.90;;;;;;4934680;29;20042;-52
2023/12/28 05:17:32;;;;;;;30.48;20.80;;;4.80;99.90;;;;;;4885306;29;20403;-53
2023/12/28 05:19:57;;;;;;;25.65;19.27;;;4.50;99.90;;;;;;4934657;29;20035;-52
2023/12/28 05:22:23;;;;;;;33.25;21.88;;;4.40;99.90;;;;;;4952493;29;20370;-52
2023/12/28 05:24:49;;;;;;;38.72;23.60;;;4.20;99.90;;;;;;4954028;29;20030;-52
2023/12/28 05:27:15;;;;;;;55.38;32.35;;;;;;;;;;4919670;29;20518;-52
2023/12/28 05:29:41;;;;;;;26.08;18.65;;;3.90;99.90;;;;;;4953277;29;20039;-52
2023/12/28 05:32:07;;;;;;;32.83;21.48;;;3.40;99.90;;;;;;4953793;28;20519;-52
2023/12/28 05:34:33;;;;;;;31.65;19.63;;;3.40;99.90;;;;;;4919651;29;20476;-52
2023/12/28 05:36:58;;;;;;;33.10;21.25;;;3.50;99.90;;;;;;4954139;29;20122;-52
2023/12/28 05:39:24;;;;;;;34.85;22.23;;;3.40;99.90;;;;;;4953199;29;20463;-52
2023/12/28 05:41:50;;;;;;;34.35;21.55;;;3.50;99.90;;;;;;4955304;28;20066;-52
2023/12/28 05:44:17;;;;;;;33.15;22.27;;;3.80;99.90;;;;;;4957536;28;20146;-52
2023/12/28 05:46:42;;;;;;;32.95;21.08;;;3.90;99.90;;;;;;4957138;29;20086;-53
2023/12/28 05:49:08;;;;;;;31.95;21.63;;;4.00;99.90;;;;;;4957398;28;20479;-52
2023/12/28 05:51:41;;;;;;;25.63;16.15;;;4.20;99.90;;;;;;4957488;29;20027;-53
2023/12/28 05:54:07;;;;;;;26.27;17.85;;;3.80;99.90;;;;;;4955183;29;20565;-52
2023/12/28 05:56:33;;;;;;;27.58;18.92;;;3.80;99.90;;;;;;4957458;28;20431;-53
2023/12/28 05:58:59;;;;;;;24.67;16.73;;;4.10;99.90;;;;;;4939253;29;20035;-52
2023/12/28 06:01:25;;;;;;;25.40;16.58;;;4.40;99.90;;;;;;4956965;29;20595;-52
2023/12/28 06:03:52;;;;;;;26.92;16.83;;;4.20;99.90;;;;;;4923176;29;20049;-52
2023/12/28 06:06:18;;;;;;;28.75;18.92;;;4.10;99.90;;;;;;4957051;29;20031;-53
2023/12/28 06:08:44;;;;;;;29.35;20.48;;;3.90;99.90;;;;;;4957450;29;20043;-53
2023/12/28 06:11:10;;;;;;;28.55;19.52;;;4.00;99.90;;;;;;4906970;29;20039;-52
2023/12/28 06:13:36;;;;;;;29.88;19.77;;;4.00;99.90;;;;;;4956786;29;20105;-52
2023/12/28 06:16:02;;;;;;;27.20;21.10;;;4.00;99.90;;;;;;4955794;29;20050;-53
2023/12/28 06:18:28;;;;;;;29.02;20.08;;;4.10;99.90;;;;;;4915797;29;20044;-52
2023/12/28 06:20:54;;;;;;;32.92;20.27;;;4.40;99.90;;;;;;4915808;29;20115;-52
2023/12/28 06:23:19;;;;;;;30.92;19.50;;;4.40;99.90;;;;;;4923402;29;20039;-52
2023/12/28 06:25:45;;;;;;;29.55;20.55;;;4.70;99.90;;;;;;4923452;29;20114;-53
2023/12/28 06:28:11;;;;;;;37.78;23.73;;;5.00;99.90;;;;;;4924865;29;20047;-52
2023/12/28 06:30:37;;;;;;;35.45;21.65;;;5.30;99.90;;;;;;4916280;29;20060;-52
2023/12/28 06:33:02;;;;;;;42.55;24.20;;;5.30;99.90;;;;;;4917802;29;20138;-53
2023/12/28 06:35:28;;;;;;;37.90;26.38;;;5.20;99.90;;;;;;4899792;29;20048;-52
2023/12/28 06:37:54;;;;;;;42.65;26.95;;;;;;;;;;4914961;29;20044;-52
2023/12/28 06:40:20;;;;;;;55.47;31.48;;;5.20;99.90;;;;;;4915598;29;20146;-52
2023/12/28 06:42:46;;;;;;;40.65;26.52;;;5.40;99.90;;;;;;4916046;29;20636;-52
2023/12/28 06:45:11;;;;;;;37.25;25.85;;;5.50;99.90;;;;;;4916145;29;20044;-52
2023/12/28 06:47:37;;;;;;;46.67;30.73;;;5.70;99.90;;;;;;4916040;29;20044;-53
2023/12/28 06:50:03;;;;;;;37.05;25.45;;;5.90;99.90;;;;;;4945973;29;20411;-52
2023/12/28 06:52:31;;;;;;;34.65;24.48;;;;;;;;;;4905947;28;20433;-52
2023/12/28 06:54:57;;;;;;;43.40;30.63;;;;;;;;;;4956373;29;20546;-52
2023/12/28 06:57:23;;;;;;;42.50;28.80;;;;;;;;;;4955447;29;20505;-53
2023/12/28 06:59:49;;;;;;;46.03;31.40;;;9.80;99.90;;;;;;4955421;29;20110;-53
2023/12/28 07:02:15;;;;;;;48.60;33.53;;;;;;;;;;4955584;29;20131;-52
2023/12/28 07:04:41;;;;;;;51.22;36.08;;;;;;;;;;4955594;29;20023;-53
2023/12/28 07:07:08;;;;;;;61.95;44.50;;;;;;;;;;4952152;29;20467;-53
2023/12/28 07:09:34;;;;;;;53.97;38.63;;;;;;;;;;4955437;29;20118;-53
2023/12/28 07:12:00;;;;;;;74.32;57.08;;;;;;;;;;4955274;29;20460;-53
2023/12/28 07:14:25;;;;;;;;;;;17.60;90.80;;;;;;4955424;29;20552;-53
2023/12/28 07:16:51;;;;;;;;;;;;;;;;;;4956108;29;20031;-53
2023/12/28 07:19:17;;;;;;;;;;;17.90;97.50;;;;;;4953361;29;20366;-53
2023/12/28 07:21:43;;;;;;;80.50;56.50;;;;;;;;;;4954148;29;20397;-54
2023/12/28 07:24:09;;;;;;;63.50;43.55;;;;;;;;;;4954935;29;20288;-53
2023/12/28 07:26:35;;;;;;;59.92;44.95;;;;;;;;;;4954745;29;20074;-53
2023/12/28 07:29:01;;;;;;;37.30;26.85;;;;;;;;;;4955183;29;20046;-53
2023/12/28 07:31:28;;;;;;;40.25;27.60;;;;;;;;;;4929044;29;20036;-54
2023/12/28 07:33:54;;;;;;;37.72;25.08;;;21.30;79.40;;;;;;4954728;29;20558;-54
2023/12/28 07:36:21;;;;;;;53.08;35.55;;;;;;;;;;4955420;29;20125;-51
2023/12/28 07:38:47;;;;;;;50.22;35.78;;;;;;;;;;4954893;29;20055;-53
2023/12/28 07:41:13;;;;;;;69.25;40.70;;;;;;;;;;4955120;29;20137;-56
2023/12/28 07:43:39;;;;;;;55.17;36.28;;;23.30;74.90;;;;;;4955441;29;20046;-56
2023/12/28 07:46:04;;;;;;;48.88;33.80;;;23.00;74.50;;;;;;4954708;29;20039;-54
2023/12/28 07:48:31;;;;;;;48.33;33.10;;;;;;;;;;4955626;29;20414;-54
2023/12/28 07:50:57;;;;;;;27.73;21.67;;;23.90;73.70;;;;;;4955522;29;20371;-54
2023/12/28 07:53:23;;;;;;;29.10;22.08;;;;;;;;;;4955218;29;20054;-52
2023/12/28 07:55:49;;;;;;;41.05;29.13;;;24.20;74.60;;;;;;4954964;29;20375;-53
2023/12/28 07:58:15;;;;;;;32.00;24.00;;;;;;;;;;4954453;29;20106;-53
2023/12/28 08:00:41;;;;;;;27.92;24.13;;;;;;;;;;4955479;29;20094;-52
2023/12/28 08:03:07;;;;;;;37.63;24.02;;;24.80;93.60;;;;;;4954884;29;20035;-53
2023/12/28 08:05:33;;;;;;;34.05;26.75;;;;;;;;;;4954168;28;20075;-54
2023/12/28 08:07:59;;;;;;;34.28;26.85;;;;;;;;;;4955321;29;20027;-53
2023/12/28 08:10:25;;;;;;;43.30;32.22;;;;;;;;;;4955044;29;20035;-53
2023/12/28 08:12:51;;;;;;;40.00;35.70;;;;;;;;;;4954265;29;20207;-53
2023/12/28 08:15:17;;;;;;;40.28;36.05;;;26.30;95.50;;;;;;4954826;29;20035;-53
2023/12/28 08:17:44;;;;;;;40.60;36.22;;;;;;;;;;4953607;29;20035;-52
2023/12/28 08:20:09;;;;;;;40.70;35.60;;;26.60;69.70;;;;;;4954455;29;20467;-52
2023/12/28 08:22:35;;;;;;;38.65;33.50;;;;;;;;;;4904855;29;20054;-52
2023/12/28 08:25:01;;;;;;;37.88;32.45;;;;;;;;;;4936540;29;20423;-51
2023/12/28 08:27:28;;;;;;;35.88;32.13;;;;;;;;;;4953484;29;20058;-52
2023/12/28 08:29:54;;;;;;;34.45;30.83;;;;;;;;;;4952890;28;20032;-52
2023/12/28 08:32:20;;;;;;;33.05;29.55;;;;;;;;;;4945596;29;20130;-51
2023/12/28 08:34:47;;;;;;;32.28;28.95;;;28.20;67.80;;;;;;4941822;29;20102;-52
2023/12/28 08:37:13;;;;;;;34.88;30.20;;;28.10;71.80;;;;;;4948995;28;20086;-54
2023/12/28 08:39:40;;;;;;;35.95;32.22;;;;;;;;;;4905042;29;20376;-53
2023/12/28 08:42:06;;;;;;;36.45;32.35;;;27.10;68.20;;;;;;4950427;29;20034;-53
2023/12/28 08:44:32;;;;;;;36.65;32.78;;;26.90;68.30;;;;;;4942170;29;20031;-54
2023/12/28 08:46:58;;;;;;;36.67;32.95;;;26.90;68.40;;;;;;4952865;28;20035;-53
2023/12/28 08:49:25;;;;;;;38.15;32.58;;;;;;;;;;4952680;29;20034;-54
2023/12/28 08:51:51;;;;;;;34.58;31.00;;;27.00;90.10;;;;;;4953064;29;20026;-53
2023/12/28 08:54:18;;;;;;;37.95;32.50;;;27.00;68.10;;;;;;4940194;29;20073;-54
2023/12/28 08:56:44;;;;;;;35.78;32.05;;;27.60;68.40;;;;;;4909844;29;20046;-54
2023/12/28 08:59:22;;;;;;;43.70;34.20;;;27.80;68.30;;;;;;4953420;29;20027;-54
2023/12/28 09:01:48;;;;;;;36.75;32.38;;;;;;;;;;4953603;29;20023;-52
2023/12/28 09:04:14;;;;;;;34.85;31.25;;;28.00;67.50;;;;;;4953797;29;20034;-53
2023/12/28 09:06:40;;;;;;;34.88;31.25;;;27.70;84.90;;;;;;4954042;29;20023;-53
2023/12/28 09:09:06;;;;;;;36.80;32.80;;;27.90;68.00;;;;;;4954008;29;20101;-53
2023/12/28 09:11:32;;;;;;;37.72;33.72;;;;;;;;;;4953929;29;20039;-54
2023/12/28 09:13:59;;;;;;;37.05;33.17;;;;;;;;;;4953848;29;20431;-53
2023/12/28 09:16:26;;;;;;;36.17;32.58;;;;;;;;;;4953848;28;20031;-54
2023/12/28 09:18:51;;;;;;;32.20;28.88;;;28.20;93.80;;;;;;4904627;29;20111;-54
2023/12/28 09:21:17;;;;;;;30.20;26.95;;;;;;;;;;4953817;29;20115;-53
2023/12/28 09:23:44;;;;;;;83.55;71.30;;;27.40;68.00;;;;;;4953910;29;20059;-54
2023/12/28 09:26:10;;;;;;;34.88;31.60;;;;;;;;;;4904321;29;20444;-54
2023/12/28 09:28:36;;;;;;;31.30;27.90;;;;;;;;;;4952547;28;20492;-53
2023/12/28 09:31:03;;;;;;;32.10;28.63;;;27.80;74.60;;;;;;4953285;29;20024;-53
2023/12/28 09:33:29;;;;;;;121.90;79.40;;;;;;;;;;4952962;29;20475;-53
2023/12/28 09:35:55;;;;;;;195.98;105.35;;;25.70;69.80;;;;;;4952364;28;20094;-53
2023/12/28 09:38:22;;;;;;;230.10;125.80;;;;;;;;;;4888362;29;20032;-52
2023/12/28 09:40:51;;;;;;;156.52;89.70;;;25.50;68.90;;;;;;4953002;29;20042;-54
2023/12/28 09:43:27;;;;;;;46.47;38.17;;;;;;;;;;4952868;29;20100;-52
2023/12/28 09:45:54;;;;;;;191.73;98.47;;;24.10;84.70;;;;;;4951143;29;20039;-52
2023/12/28 09:48:21;;;;;;;341.45;159.13;;;;;;;;;;4952259;29;20023;-53
2023/12/28 09:50:53;;;;;;;42.13;37.72;;;;;;;;;;4952881;29;20043;-52
2023/12/28 09:53:20;;;;;;;47.65;37.47;;;;;;;;;;4950654;29;20074;-52
2023/12/28 09:55:45;;;;;;;71.55;42.65;;;25.60;70.30;;;;;;4952101;29;20424;-53
2023/12/28 09:58:16;;;;;;;98.57;50.95;;;25.50;70.10;;;;;;4953286;29;20023;-54
2023/12/28 10:00:44;;;;;;;282.95;115.57;;;24.60;70.70;;;;;;4953352;29;20085;-53
2023/12/28 10:03:11;;;;;;;499.25;213.25;;;;;;;;;;4952700;29;20026;-53
2023/12/28 10:05:37;;;;;;;345.17;132.35;;;25.60;98.90;;;;;;4952960;29;20024;-53
2023/12/28 10:08:04;;;;;;;107.90;57.08;;;25.60;70.20;;;;;;4951645;29;20028;-53
2023/12/28 10:10:30;;;;;;;291.58;108.63;;;;;;;;;;4951478;29;20042;-53
2023/12/28 10:12:56;;;;;;;229.68;91.95;;;;;;;;;;4951436;29;20070;-52
2023/12/28 10:15:22;;;;;;;39.45;29.45;;;27.30;92.10;;;;;;4952748;29;20106;-53
2023/12/28 10:17:48;;;;;;;104.75;51.42;;;;;;;;;;4948620;29;20453;-53
2023/12/28 10:20:14;;;;;;;32.63;28.48;;;26.20;93.90;;;;;;4951662;29;20046;-53
2023/12/28 10:22:40;;;;;;;38.47;31.60;;;26.40;70.80;;;;;;4951972;29;20038;-53
2023/12/28 10:25:07;;;;;;;34.30;28.52;;;27.20;70.70;;;;;;4952959;29;20027;-53
2023/12/28 10:27:33;;;;;;;31.73;28.30;;;;;;;;;;4953047;28;20536;-53
2023/12/28 10:29:59;;;;;;;36.28;30.17;;;27.40;97.90;;;;;;4935672;29;20043;-53
2023/12/28 10:32:24;;;;;;;84.68;58.92;;;27.30;70.00;;;;;;4956426;29;20506;-53
2023/12/28 10:34:53;;;;;;;35.30;31.08;;;26.30;70.20;;;;;;4956514;29;20035;-53
2023/12/28 10:37:20;;;;;;;37.08;31.63;;;;;;;;;;4956614;29;20040;-52
2023/12/28 10:39:52;;;;;;;38.28;31.48;;;26.20;70.60;;;;;;4956518;29;20024;-53
2023/12/28 10:42:30;;;;;;;39.88;34.67;;;25.90;71.60;;;;;;4956587;29;20055;-52
2023/12/28 10:45:05;;;;;;;58.75;44.20;;;26.10;71.60;;;;;;4956925;29;20069;-53
2023/12/28 10:47:33;;;;;;;45.22;36.22;;;25.10;71.60;;;;;;4956695;29;20043;-53
2023/12/28 10:50:02;;;;;;;53.08;37.50;;;25.00;93.60;;;;;;4956206;29;20043;-52
2023/12/28 10:52:30;;;;;;;49.13;41.58;;;25.30;72.50;;;;;;4956305;29;20484;-53
2023/12/28 10:55:20;;;;;;;51.13;33.67;;;25.30;72.90;;;;;;4953414;29;20047;-53
2023/12/28 10:58:23;;;;;;;47.45;34.65;;;25.30;73.30;;;;;;4956086;29;20118;-53
2023/12/28 11:00:56;;;;;;;45.00;31.83;;;24.00;73.20;;;;;;4932696;29;20384;-53
2023/12/28 11:03:24;;;;;;;49.75;34.10;;;;;;;;;;4922197;29;20044;-52
2023/12/28 11:05:51;;;;;;;42.63;33.10;;;24.50;73.20;;;;;;4955907;29;20031;-53
2023/12/28 11:08:19;;;;;;;40.08;30.95;;;24.30;74.10;;;;;;4956403;29;20475;-53
2023/12/28 11:10:45;;;;;;;43.38;30.60;;;24.50;74.40;;;;;;4956382;29;20035;-52
2023/12/28 11:13:12;;;;;;;44.80;33.75;;;24.30;74.50;;;;;;4955798;29;20047;-52
2023/12/28 11:15:39;;;;;;;44.50;32.67;;;24.50;74.70;;;;;;4956001;29;20027;-53
2023/12/28 11:18:04;;;;;;;46.40;31.27;;;24.30;74.30;;;;;;4955986;29;20442;-53
2023/12/28 11:20:31;;;;;;;37.95;30.02;;;23.90;74.80;;;;;;4956035;29;20071;-53
2023/12/28 11:22:57;;;;;;;47.95;34.10;;;;;;;;;;4955798;29;20089;-53
2023/12/28 11:25:23;;;;;;;36.38;30.02;;;23.70;73.90;;;;;;4955885;29;20038;-53
2023/12/28 11:27:48;;;;;;;33.75;29.40;;;22.80;75.00;;;;;;4955704;29;20387;-53
2023/12/28 11:30:14;;;;;;;36.55;29.92;;;22.70;77.00;;;;;;4890431;29;20042;-52
2023/12/28 11:32:44;;;;;;;35.38;29.52;;;;;;;;;;4921561;29;20036;-52
2023/12/28 11:35:17;;;;;;;34.13;29.20;;;23.30;97.20;;;;;;4955786;29;20374;-52
2023/12/28 11:37:49;;;;;;;36.55;28.58;;;;;;;;;;4955765;29;20414;-52
2023/12/28 11:40:19;;;;;;;35.08;28.10;;;;;;;;;;4955277;28;20085;-52
2023/12/28 11:42:52;;;;;;;34.78;29.23;;;24.20;93.70;;;;;;4955510;29;20111;-52
2023/12/28 11:45:25;;;;;;;32.55;28.85;;;24.10;75.20;;;;;;4921451;29;20133;-52
2023/12/28 11:48:01;;;;;;;50.75;33.72;;;24.30;75.30;;;;;;4955718;29;20122;-52
2023/12/28 11:50:27;;;;;;;36.22;28.67;;;;;;;;;;4955530;29;20075;-52
2023/12/28 11:52:53;;;;;;;34.60;27.73;;;23.40;99.90;;;;;;4955004;29;20023;-52
2023/12/28 11:55:24;;;;;;;32.67;28.50;;;23.80;76.70;;;;;;4955742;29;20027;-52
2023/12/28 11:57:50;;;;;;;;;;;23.60;76.70;;;;;;4955537;29;20053;-52
2023/12/28 12:00:16;;;;;;;39.53;33.58;;;24.20;77.40;;;;;;4955072;29;20350;-52
2023/12/28 12:02:45;;;;;;;34.53;28.67;;;23.70;76.60;;;;;;4921122;29;20035;-52
2023/12/28 12:05:12;;;;;;;61.08;35.80;;;23.50;77.00;;;;;;4921025;29;20082;-52
2023/12/28 12:07:37;;;;;;;30.58;26.38;;;23.30;78.10;;;;;;4955028;29;20046;-52
2023/12/28 12:10:04;;;;;;;38.17;29.85;;;;;;;;;;4955212;29;20620;-52
2023/12/28 12:12:29;;;;;;;39.13;31.58;;;23.10;78.10;;;;;;4955053;29;20055;-52
2023/12/28 12:14:56;;;;;;;48.80;33.17;;;23.10;78.60;;;;;;4954887;29;20525;-52
2023/12/28 12:17:22;;;;;;;45.65;33.75;;;22.80;79.10;;;;;;4955034;29;20027;-52
2023/12/28 12:19:50;;;;;;;86.78;45.05;;;22.60;95.10;;;;;;4954928;29;20038;-52
2023/12/28 12:22:17;;;;;;;49.33;43.53;;;;;;;;;;4954618;29;20074;-52
2023/12/28 12:24:48;;;;;;;36.13;29.23;;;22.00;85.20;;;;;;4937484;29;20494;-52
2023/12/28 12:27:14;;;;;;;41.17;27.00;;;21.90;80.20;;;;;;4954452;29;20051;-52
2023/12/28 12:29:40;;;;;;;47.25;31.27;;;;;;;;;;4904836;29;20487;-52
2023/12/28 12:32:07;;;;;;;36.70;26.40;;;20.30;81.90;;;;;;4954217;29;20086;-52
2023/12/28 12:34:33;;;;;;;34.08;29.23;;;20.50;82.50;;;;;;4954586;29;20043;-52
2023/12/28 12:37:00;;;;;;;36.22;28.05;;;20.70;81.90;;;;;;4954839;29;20059;-52
2023/12/28 12:39:26;;;;;;;35.03;28.55;;;20.90;82.00;;;;;;4954356;29;20151;-52
2023/12/28 12:41:52;;;;;;;33.85;28.67;;;21.20;82.20;;;;;;4954156;29;20051;-52
2023/12/28 12:44:21;;;;;;;47.00;28.33;;;21.10;81.70;;;;;;4954613;29;20051;-52
2023/12/28 12:46:47;;;;;;;36.03;27.25;;;21.20;81.90;;;;;;4954687;29;20061;-52
2023/12/28 12:49:13;;;;;;;32.63;27.45;;;;;;;;;;4904502;29;20067;-52
2023/12/28 12:51:40;;;;;;;36.70;28.25;;;;;;;;;;4953810;28;20035;-52
2023/12/28 12:54:08;;;;;;;35.42;29.35;;;20.10;81.90;;;;;;4954465;29;20387;-51
2023/12/28 12:56:35;;;;;;;34.35;27.52;;;;;;;;;;4954325;29;20101;-52